createdAt,value
2022-12-09T00:38:44.173Z,17.88
2022-12-09T00:42:18.304Z,18.13
2022-12-09T03:13:29.889Z,10.93
2022-12-09T03:24:15.919Z,11.93
2022-12-09T04:32:48.531Z,11.02
2022-12-09T04:35:59.739Z,11.98
2022-12-09T04:39:26.980Z,11.48
2022-12-09T04:45:53.538Z,11.35
2022-12-09T04:49:25.557Z,10.40
2022-12-09T04:52:14.884Z,11.35
2022-12-09T04:55:02.011Z,10.65
2022-12-09T05:07:32.179Z,10.90
2022-12-09T05:10:41.619Z,10.57
2022-12-09T05:16:42.742Z,9.77
2022-12-09T05:20:12.264Z,10.18
2022-12-09T05:26:57.079Z,9.35
2022-12-09T05:32:53.762Z,10.18
2022-12-09T05:35:52.274Z,9.65
2022-12-09T05:42:25.366Z,10.45
2022-12-09T05:48:59.470Z,9.30
2022-12-09T05:58:46.918Z,9.38
2022-12-09T06:01:52.323Z,10.05
2022-12-09T06:05:12.872Z,9.40
2022-12-09T06:11:43.278Z,10.10
2022-12-09T06:15:43.756Z,10.18
2022-12-09T06:22:08.964Z,9.82
2022-12-09T06:25:01.874Z,10.45
2022-12-09T06:28:04.100Z,10.25
2022-12-09T06:31:26.712Z,10.45
2022-12-09T06:34:32.212Z,10.25
2022-12-09T06:37:23.585Z,10.77
2022-12-09T06:41:13.763Z,11.60
2022-12-09T06:47:52.109Z,9.02
2022-12-09T06:50:47.265Z,8.40
2022-12-09T06:53:50.788Z,9.18
2022-12-09T06:56:39.305Z,10.50
2022-12-09T06:59:37.560Z,9.65
2022-12-09T07:05:51.710Z,9.75
2022-12-09T07:12:27.295Z,10.15
2022-12-09T07:21:11.427Z,10.32
2022-12-09T07:55:02.496Z,12.45
2022-12-09T07:57:39.565Z,11.95
2022-12-09T08:00:10.742Z,11.77
2022-12-09T08:02:55.568Z,12.02
2022-12-09T08:05:24.616Z,12.38
2022-12-09T08:07:53.559Z,12.13
2022-12-09T16:11:42.668Z,26.63
2022-12-09T16:14:20.856Z,27.27
2022-12-09T16:17:23.213Z,23.75
2022-12-09T16:20:21.783Z,25.95
2022-12-09T16:23:22.524Z,28.33
2022-12-09T16:25:53.181Z,23.95
2022-12-09T16:28:30.751Z,45.88
2022-12-09T16:31:04.799Z,19.10
2022-12-09T16:33:54.609Z,26.42
2022-12-09T16:36:57.346Z,38.75
2022-12-09T16:39:38.552Z,22.98
2022-12-09T16:42:23.205Z,20.98
2022-12-09T16:45:30.700Z,22.80
2022-12-09T16:48:17.676Z,22.38
2022-12-09T16:50:49.871Z,30.73
2022-12-09T16:53:22.533Z,23.67
2022-12-09T16:55:53.827Z,21.88
2022-12-09T16:58:31.075Z,26.77
2022-12-09T17:01:31.377Z,27.33
2022-12-09T17:14:52.229Z,16.33
2022-12-09T17:32:40.806Z,27.20
2022-12-09T17:35:33.896Z,32.63
2022-12-09T17:38:23.133Z,40.25
2022-12-09T17:42:07.179Z,29.20
2022-12-09T17:44:25.091Z,23.80
2022-12-09T17:47:29.196Z,36.05
2022-12-09T17:50:08.874Z,31.13
2022-12-09T17:52:52.948Z,29.80
2022-12-09T17:55:28.704Z,26.40
2022-12-09T17:58:01.666Z,31.30
2022-12-09T18:00:49.966Z,27.65
2022-12-09T18:03:53.912Z,20.50
2022-12-09T18:06:14.581Z,23.63
2022-12-09T18:08:43.267Z,25.90
2022-12-09T18:11:16.211Z,29.27
2022-12-09T18:13:56.685Z,26.05
2022-12-09T18:16:46.774Z,28.40
2022-12-09T18:19:19.904Z,24.92
2022-12-09T18:21:53.661Z,26.95
2022-12-09T18:24:30.206Z,23.40
2022-12-09T18:27:17.021Z,24.38
2022-12-09T18:29:48.548Z,26.30
2022-12-09T18:32:21.007Z,22.23
2022-12-09T18:34:51.283Z,21.85
2022-12-09T18:37:21.865Z,20.13
2022-12-09T18:39:50.381Z,23.60
2022-12-09T18:42:19.164Z,23.08
2022-12-09T18:44:48.223Z,19.13
2022-12-09T18:47:18.619Z,23.73
2022-12-09T18:49:47.621Z,19.50
2022-12-09T18:52:16.058Z,24.38
2022-12-09T18:54:46.358Z,21.10
2022-12-09T18:57:15.712Z,22.67
2022-12-09T18:59:45.823Z,18.88
2022-12-09T19:02:15.070Z,21.95
2022-12-09T19:04:46.164Z,24.60
2022-12-09T19:07:16.557Z,22.02
2022-12-09T19:09:45.030Z,21.30
2022-12-09T19:12:45.732Z,20.35
2022-12-09T19:15:04.131Z,22.85
2022-12-09T19:17:33.445Z,22.80
2022-12-09T19:20:03.257Z,20.70
2022-12-09T19:22:31.627Z,22.20
2022-12-09T19:25:00.257Z,23.23
2022-12-09T19:27:28.563Z,20.75
2022-12-09T19:29:56.977Z,23.67
2022-12-09T19:32:52.026Z,23.92
2022-12-09T19:35:16.308Z,24.10
2022-12-09T19:37:44.733Z,23.25
2022-12-09T19:40:13.573Z,25.52
2022-12-09T19:42:42.140Z,26.73
2022-12-09T19:45:14.184Z,27.58
2022-12-09T19:47:44.444Z,26.55
2022-12-09T19:50:14.136Z,28.00
2022-12-09T19:52:44.872Z,29.42
2022-12-09T19:55:13.707Z,30.02
2022-12-09T19:57:42.261Z,28.85
2022-12-09T20:00:12.648Z,26.10
2022-12-09T20:02:41.294Z,26.55
2022-12-09T20:05:11.939Z,26.50
2022-12-09T20:07:40.443Z,28.58
2022-12-09T20:10:12.232Z,28.58
2022-12-09T20:12:41.908Z,29.83
2022-12-09T20:15:11.248Z,26.63
2022-12-09T20:17:39.876Z,28.05
2022-12-09T20:20:10.857Z,27.85
2022-12-09T20:22:39.466Z,24.92
2022-12-09T20:25:11.344Z,26.75
2022-12-09T20:27:40.008Z,28.00
2022-12-09T20:30:15.005Z,31.85
2022-12-09T20:32:50.942Z,24.98
2022-12-09T20:35:38.445Z,29.85
2022-12-09T20:38:12.342Z,22.98
2022-12-09T20:40:44.591Z,27.67
2022-12-09T20:43:16.959Z,26.17
2022-12-09T20:45:46.143Z,27.70
2022-12-09T20:48:14.866Z,31.98
2022-12-09T20:50:45.764Z,25.65
2022-12-09T20:53:14.705Z,30.98
2022-12-09T20:55:45.077Z,27.75
2022-12-09T20:58:13.897Z,24.90
2022-12-09T21:00:49.639Z,22.67
2022-12-09T21:03:18.715Z,22.92
2022-12-09T21:05:57.558Z,26.25
2022-12-09T21:11:41.080Z,23.20
2022-12-09T21:14:09.809Z,21.38
2022-12-09T21:16:41.180Z,23.08
2022-12-09T21:19:15.328Z,26.60
2022-12-09T21:22:22.648Z,22.58
2022-12-09T21:24:51.256Z,23.15
2022-12-09T21:27:21.465Z,23.73
2022-12-09T21:29:52.514Z,22.33
2022-12-09T21:32:22.580Z,22.33
2022-12-09T21:34:52.158Z,20.92
2022-12-09T21:37:20.837Z,21.95
2022-12-09T21:39:49.707Z,18.98
2022-12-09T21:42:18.302Z,21.50
2022-12-09T21:44:48.318Z,22.27
2022-12-09T21:47:17.026Z,20.38
2022-12-09T21:49:45.720Z,19.45
2022-12-09T21:52:16.792Z,22.45
2022-12-09T21:54:55.614Z,22.48
2022-12-09T21:57:29.761Z,22.00
2022-12-09T22:00:09.359Z,22.80
2022-12-09T22:02:40.317Z,22.20
2022-12-09T22:05:10.741Z,22.15
2022-12-09T22:07:39.202Z,18.70
2022-12-09T22:10:31.634Z,22.33
2022-12-09T22:13:32.781Z,21.85
2022-12-09T22:16:34.572Z,22.25
2022-12-09T22:19:23.884Z,22.27
2022-12-09T22:24:43.340Z,19.73
2022-12-09T22:27:13.597Z,22.40
2022-12-09T22:29:42.353Z,20.60
2022-12-09T22:32:16.831Z,22.25
2022-12-09T22:34:45.727Z,20.52
2022-12-09T22:37:41.944Z,22.23
2022-12-09T22:40:03.248Z,20.50
2022-12-09T22:42:33.919Z,21.45
2022-12-09T22:45:04.713Z,20.05
2022-12-09T22:47:44.977Z,21.58
2022-12-09T22:50:16.031Z,20.23
2022-12-09T22:52:45.776Z,19.45
2022-12-09T22:55:14.388Z,18.52
2022-12-09T22:57:43.266Z,17.95
2022-12-09T23:00:13.631Z,17.77
2022-12-09T23:02:43.849Z,17.73
2022-12-09T23:05:12.524Z,18.98
2022-12-09T23:07:41.584Z,16.75
2022-12-09T23:10:11.209Z,18.52
2022-12-09T23:12:39.734Z,17.83
2022-12-09T23:15:09.956Z,18.00
2022-12-09T23:17:38.746Z,18.10
2022-12-09T23:20:10.241Z,17.50
2022-12-09T23:22:40.153Z,17.70
2022-12-09T23:25:10.326Z,17.65
2022-12-09T23:27:41.159Z,17.70
2022-12-09T23:30:10.842Z,17.00
2022-12-09T23:32:40.935Z,16.85
2022-12-09T23:35:11.821Z,17.02
2022-12-09T23:37:40.756Z,16.23
2022-12-09T23:40:10.811Z,16.10
2022-12-09T23:42:39.617Z,15.82
2022-12-09T23:45:10.916Z,14.73
2022-12-09T23:47:39.901Z,15.35
2022-12-09T23:50:09.431Z,16.27
2022-12-09T23:52:39.947Z,16.38
2022-12-09T23:55:10.564Z,15.68
2022-12-09T23:57:40.315Z,16.67
